sensor_id;sensor_type;location;lat;lon;timestamp;P1;durP1;ratioP1;P2;durP2;ratioP2
24813;SDS011;12904;50.088;11.414;2022-10-31T00:01:23;36.58;;;8.90;;
24813;SDS011;12904;50.088;11.414;2022-10-31T00:03:54;35.80;;;9.13;;
24813;SDS011;12904;50.088;11.414;2022-10-31T00:06:20;18.27;;;8.60;;
24813;SDS011;12904;50.088;11.414;2022-10-31T00:08:47;17.17;;;8.13;;
24813;SDS011;12904;50.088;11.414;2022-10-31T00:11:17;20.50;;;7.47;;
24813;SDS011;12904;50.088;11.414;2022-10-31T00:13:43;27.70;;;6.72;;
24813;SDS011;12904;50.088;11.414;2022-10-31T00:16:15;19.33;;;6.35;;
24813;SDS011;12904;50.088;11.414;2022-10-31T00:18:48;22.55;;;5.95;;
24813;SDS011;12904;50.088;11.414;2022-10-31T00:21:15;25.38;;;6.53;;
24813;SDS011;12904;50.088;11.414;2022-10-31T00:23:41;31.42;;;6.25;;
24813;SDS011;12904;50.088;11.414;2022-10-31T00:26:06;19.40;;;6.50;;
24813;SDS011;12904;50.088;11.414;2022-10-31T00:28:32;21.08;;;7.15;;
24813;SDS011;12904;50.088;11.414;2022-10-31T00:31:01;24.50;;;7.00;;
24813;SDS011;12904;50.088;11.414;2022-10-31T00:33:28;17.42;;;6.93;;
24813;SDS011;12904;50.088;11.414;2022-10-31T00:35:54;38.42;;;7.22;;
24813;SDS011;12904;50.088;11.414;2022-10-31T00:38:20;23.20;;;7.25;;
24813;SDS011;12904;50.088;11.414;2022-10-31T00:40:45;18.63;;;7.55;;
24813;SDS011;12904;50.088;11.414;2022-10-31T00:43:11;19.33;;;6.10;;
24813;SDS011;12904;50.088;11.414;2022-10-31T00:45:37;18.92;;;6.75;;
24813;SDS011;12904;50.088;11.414;2022-10-31T00:48:02;21.40;;;8.10;;
24813;SDS011;12904;50.088;11.414;2022-10-31T00:50:29;23.02;;;8.80;;
24813;SDS011;12904;50.088;11.414;2022-10-31T00:52:55;46.25;;;8.85;;
24813;SDS011;12904;50.088;11.414;2022-10-31T00:55:21;70.45;;;9.15;;
24813;SDS011;12904;50.088;11.414;2022-10-31T00:57:47;94.43;;;11.25;;
24813;SDS011;12904;50.088;11.414;2022-10-31T01:00:13;200.85;;;13.32;;
24813;SDS011;12904;50.088;11.414;2022-10-31T01:02:39;101.10;;;10.75;;
24813;SDS011;12904;50.088;11.414;2022-10-31T01:05:04;90.40;;;9.55;;
24813;SDS011;12904;50.088;11.414;2022-10-31T01:07:30;37.92;;;8.73;;
24813;SDS011;12904;50.088;11.414;2022-10-31T01:09:56;75.72;;;9.60;;
24813;SDS011;12904;50.088;11.414;2022-10-31T01:12:21;35.00;;;8.55;;
24813;SDS011;12904;50.088;11.414;2022-10-31T01:14:47;22.85;;;8.20;;
24813;SDS011;12904;50.088;11.414;2022-10-31T01:17:13;28.83;;;8.70;;
24813;SDS011;12904;50.088;11.414;2022-10-31T01:19:38;24.38;;;7.82;;
24813;SDS011;12904;50.088;11.414;2022-10-31T01:22:04;56.72;;;9.80;;
24813;SDS011;12904;50.088;11.414;2022-10-31T01:24:30;30.02;;;7.70;;
24813;SDS011;12904;50.088;11.414;2022-10-31T01:26:56;34.55;;;8.05;;
24813;SDS011;12904;50.088;11.414;2022-10-31T01:29:22;27.75;;;6.80;;
24813;SDS011;12904;50.088;11.414;2022-10-31T01:31:47;21.27;;;7.88;;
24813;SDS011;12904;50.088;11.414;2022-10-31T01:34:14;43.38;;;7.88;;
24813;SDS011;12904;50.088;11.414;2022-10-31T01:36:42;42.22;;;8.15;;
24813;SDS011;12904;50.088;11.414;2022-10-31T01:39:13;29.55;;;8.45;;
24813;SDS011;12904;50.088;11.414;2022-10-31T01:41:41;32.63;;;7.05;;
24813;SDS011;12904;50.088;11.414;2022-10-31T01:46:41;54.38;;;8.23;;
24813;SDS011;12904;50.088;11.414;2022-10-31T01:49:15;47.47;;;7.38;;
24813;SDS011;12904;50.088;11.414;2022-10-31T01:52:02;59.47;;;8.35;;
24813;SDS011;12904;50.088;11.414;2022-10-31T01:54:32;37.63;;;7.35;;
24813;SDS011;12904;50.088;11.414;2022-10-31T01:57:00;31.92;;;7.53;;
24813;SDS011;12904;50.088;11.414;2022-10-31T01:59:28;29.48;;;8.15;;
24813;SDS011;12904;50.088;11.414;2022-10-31T02:01:55;16.10;;;6.35;;
24813;SDS011;12904;50.088;11.414;2022-10-31T02:04:21;21.65;;;6.65;;
24813;SDS011;12904;50.088;11.414;2022-10-31T02:06:51;10.75;;;6.28;;
24813;SDS011;12904;50.088;11.414;2022-10-31T02:09:21;27.38;;;6.65;;
24813;SDS011;12904;50.088;11.414;2022-10-31T02:11:52;38.22;;;7.50;;
24813;SDS011;12904;50.088;11.414;2022-10-31T02:14:24;99.30;;;7.82;;
24813;SDS011;12904;50.088;11.414;2022-10-31T02:16:52;200.07;;;11.80;;
24813;SDS011;12904;50.088;11.414;2022-10-31T02:19:24;175.18;;;11.20;;
24813;SDS011;12904;50.088;11.414;2022-10-31T02:22:04;114.78;;;9.85;;
24813;SDS011;12904;50.088;11.414;2022-10-31T02:30:13;28.25;;;6.80;;
24813;SDS011;12904;50.088;11.414;2022-10-31T02:32:54;50.67;;;7.15;;
24813;SDS011;12904;50.088;11.414;2022-10-31T02:44:09;6.32;;;5.78;;
24813;SDS011;12904;50.088;11.414;2022-10-31T02:46:48;13.40;;;6.65;;
24813;SDS011;12904;50.088;11.414;2022-10-31T02:49:38;10.40;;;6.57;;
24813;SDS011;12904;50.088;11.414;2022-10-31T02:52:14;11.68;;;6.57;;
24813;SDS011;12904;50.088;11.414;2022-10-31T02:54:52;9.50;;;6.45;;
24813;SDS011;12904;50.088;11.414;2022-10-31T02:57:20;16.17;;;6.65;;
24813;SDS011;12904;50.088;11.414;2022-10-31T02:59:52;13.70;;;6.40;;
24813;SDS011;12904;50.088;11.414;2022-10-31T03:05:11;11.13;;;6.25;;
24813;SDS011;12904;50.088;11.414;2022-10-31T03:10:43;11.02;;;6.45;;
24813;SDS011;12904;50.088;11.414;2022-10-31T03:13:12;7.47;;;5.95;;
24813;SDS011;12904;50.088;11.414;2022-10-31T03:15:46;9.90;;;6.30;;
24813;SDS011;12904;50.088;11.414;2022-10-31T03:20:57;33.20;;;7.43;;
24813;SDS011;12904;50.088;11.414;2022-10-31T03:23:52;29.17;;;6.82;;
24813;SDS011;12904;50.088;11.414;2022-10-31T03:26:21;36.38;;;7.70;;
24813;SDS011;12904;50.088;11.414;2022-10-31T03:28:53;45.85;;;7.30;;
24813;SDS011;12904;50.088;11.414;2022-10-31T03:31:26;25.52;;;7.03;;
24813;SDS011;12904;50.088;11.414;2022-10-31T03:33:58;33.28;;;6.70;;
24813;SDS011;12904;50.088;11.414;2022-10-31T03:36:25;34.90;;;6.70;;
24813;SDS011;12904;50.088;11.414;2022-10-31T03:38:51;33.13;;;6.88;;
24813;SDS011;12904;50.088;11.414;2022-10-31T03:41:19;18.85;;;6.32;;
24813;SDS011;12904;50.088;11.414;2022-10-31T03:43:52;9.68;;;5.35;;
24813;SDS011;12904;50.088;11.414;2022-10-31T03:46:22;15.20;;;6.10;;
24813;SDS011;12904;50.088;11.414;2022-10-31T03:48:48;18.88;;;5.93;;
24813;SDS011;12904;50.088;11.414;2022-10-31T03:53:45;8.98;;;6.07;;
24813;SDS011;12904;50.088;11.414;2022-10-31T03:56:37;10.15;;;4.68;;
24813;SDS011;12904;50.088;11.414;2022-10-31T03:59:34;68.25;;;8.40;;
24813;SDS011;12904;50.088;11.414;2022-10-31T04:02:03;8.70;;;6.07;;
24813;SDS011;12904;50.088;11.414;2022-10-31T04:04:33;16.38;;;6.82;;
24813;SDS011;12904;50.088;11.414;2022-10-31T04:07:00;7.28;;;6.53;;
24813;SDS011;12904;50.088;11.414;2022-10-31T04:09:27;16.20;;;6.40;;
24813;SDS011;12904;50.088;11.414;2022-10-31T04:11:55;18.63;;;6.82;;
24813;SDS011;12904;50.088;11.414;2022-10-31T04:14:23;34.75;;;6.72;;
24813;SDS011;12904;50.088;11.414;2022-10-31T04:16:52;13.82;;;6.30;;
24813;SDS011;12904;50.088;11.414;2022-10-31T04:19:19;11.45;;;6.43;;
24813;SDS011;12904;50.088;11.414;2022-10-31T04:21:44;7.38;;;6.20;;
24813;SDS011;12904;50.088;11.414;2022-10-31T04:24:10;16.10;;;6.45;;
24813;SDS011;12904;50.088;11.414;2022-10-31T04:26:36;19.88;;;6.60;;
24813;SDS011;12904;50.088;11.414;2022-10-31T04:29:02;64.18;;;7.63;;
24813;SDS011;12904;50.088;11.414;2022-10-31T04:31:27;48.05;;;8.10;;
24813;SDS011;12904;50.088;11.414;2022-10-31T04:33:53;54.80;;;8.45;;
24813;SDS011;12904;50.088;11.414;2022-10-31T04:36:19;67.05;;;9.38;;
24813;SDS011;12904;50.088;11.414;2022-10-31T04:38:45;40.42;;;7.53;;
24813;SDS011;12904;50.088;11.414;2022-10-31T04:41:11;21.30;;;6.65;;
24813;SDS011;12904;50.088;11.414;2022-10-31T04:43:36;28.70;;;5.75;;
24813;SDS011;12904;50.088;11.414;2022-10-31T04:46:02;20.17;;;6.00;;
24813;SDS011;12904;50.088;11.414;2022-10-31T04:48:28;13.35;;;6.28;;
24813;SDS011;12904;50.088;11.414;2022-10-31T04:50:58;20.85;;;6.68;;
24813;SDS011;12904;50.088;11.414;2022-10-31T04:53:28;22.85;;;7.13;;
24813;SDS011;12904;50.088;11.414;2022-10-31T04:55:54;32.47;;;6.68;;
24813;SDS011;12904;50.088;11.414;2022-10-31T04:58:20;15.73;;;6.43;;
24813;SDS011;12904;50.088;11.414;2022-10-31T05:00:45;17.73;;;6.30;;
24813;SDS011;12904;50.088;11.414;2022-10-31T05:03:11;10.35;;;6.00;;
24813;SDS011;12904;50.088;11.414;2022-10-31T05:05:37;10.18;;;6.97;;
24813;SDS011;12904;50.088;11.414;2022-10-31T05:08:03;10.30;;;6.93;;
24813;SDS011;12904;50.088;11.414;2022-10-31T05:10:29;25.17;;;7.53;;
24813;SDS011;12904;50.088;11.414;2022-10-31T05:12:56;65.97;;;8.48;;
24813;SDS011;12904;50.088;11.414;2022-10-31T05:15:24;10.63;;;6.55;;
24813;SDS011;12904;50.088;11.414;2022-10-31T05:17:50;14.15;;;7.13;;
24813;SDS011;12904;50.088;11.414;2022-10-31T05:20:17;30.77;;;7.68;;
24813;SDS011;12904;50.088;11.414;2022-10-31T05:22:48;12.40;;;7.55;;
24813;SDS011;12904;50.088;11.414;2022-10-31T05:25:15;8.07;;;7.30;;
24813;SDS011;12904;50.088;11.414;2022-10-31T05:27:43;22.15;;;7.70;;
24813;SDS011;12904;50.088;11.414;2022-10-31T05:30:10;42.50;;;8.77;;
24813;SDS011;12904;50.088;11.414;2022-10-31T05:32:41;54.78;;;9.27;;
24813;SDS011;12904;50.088;11.414;2022-10-31T05:35:10;95.30;;;11.30;;
24813;SDS011;12904;50.088;11.414;2022-10-31T05:37:40;72.50;;;12.30;;
24813;SDS011;12904;50.088;11.414;2022-10-31T05:40:07;29.45;;;8.75;;
24813;SDS011;12904;50.088;11.414;2022-10-31T05:42:34;123.25;;;11.68;;
24813;SDS011;12904;50.088;11.414;2022-10-31T05:45:00;55.90;;;8.32;;
24813;SDS011;12904;50.088;11.414;2022-10-31T05:47:25;41.08;;;8.57;;
24813;SDS011;12904;50.088;11.414;2022-10-31T05:49:51;44.25;;;7.93;;
24813;SDS011;12904;50.088;11.414;2022-10-31T05:52:17;72.28;;;7.57;;
24813;SDS011;12904;50.088;11.414;2022-10-31T05:54:43;49.60;;;7.38;;
24813;SDS011;12904;50.088;11.414;2022-10-31T05:57:08;34.00;;;6.32;;
24813;SDS011;12904;50.088;11.414;2022-10-31T05:59:34;47.03;;;7.07;;
24813;SDS011;12904;50.088;11.414;2022-10-31T06:01:59;51.70;;;8.02;;
24813;SDS011;12904;50.088;11.414;2022-10-31T06:04:25;34.40;;;8.20;;
24813;SDS011;12904;50.088;11.414;2022-10-31T06:06:51;49.70;;;7.43;;
24813;SDS011;12904;50.088;11.414;2022-10-31T06:09:16;56.78;;;8.70;;
24813;SDS011;12904;50.088;11.414;2022-10-31T06:11:42;110.03;;;9.70;;
24813;SDS011;12904;50.088;11.414;2022-10-31T06:14:08;58.67;;;8.68;;
24813;SDS011;12904;50.088;11.414;2022-10-31T06:16:33;57.35;;;8.80;;
24813;SDS011;12904;50.088;11.414;2022-10-31T06:18:59;53.45;;;8.02;;
24813;SDS011;12904;50.088;11.414;2022-10-31T06:21:25;30.30;;;8.10;;
24813;SDS011;12904;50.088;11.414;2022-10-31T06:23:50;108.43;;;11.05;;
24813;SDS011;12904;50.088;11.414;2022-10-31T06:26:16;37.20;;;8.52;;
24813;SDS011;12904;50.088;11.414;2022-10-31T06:28:42;112.32;;;11.10;;
24813;SDS011;12904;50.088;11.414;2022-10-31T06:31:07;64.15;;;8.55;;
24813;SDS011;12904;50.088;11.414;2022-10-31T06:33:33;72.03;;;8.98;;
24813;SDS011;12904;50.088;11.414;2022-10-31T06:35:59;33.97;;;7.60;;
24813;SDS011;12904;50.088;11.414;2022-10-31T06:38:25;32.00;;;7.28;;
24813;SDS011;12904;50.088;11.414;2022-10-31T06:40:52;60.40;;;8.00;;
24813;SDS011;12904;50.088;11.414;2022-10-31T06:43:18;50.17;;;7.70;;
24813;SDS011;12904;50.088;11.414;2022-10-31T06:45:44;33.05;;;6.97;;
24813;SDS011;12904;50.088;11.414;2022-10-31T06:48:10;68.18;;;8.50;;
24813;SDS011;12904;50.088;11.414;2022-10-31T06:50:35;32.08;;;7.43;;
24813;SDS011;12904;50.088;11.414;2022-10-31T06:53:01;57.22;;;8.57;;
24813;SDS011;12904;50.088;11.414;2022-10-31T06:55:27;62.45;;;7.85;;
24813;SDS011;12904;50.088;11.414;2022-10-31T06:57:53;28.13;;;6.75;;
24813;SDS011;12904;50.088;11.414;2022-10-31T07:00:23;44.85;;;7.18;;
24813;SDS011;12904;50.088;11.414;2022-10-31T07:02:56;32.78;;;6.80;;
24813;SDS011;12904;50.088;11.414;2022-10-31T07:05:23;28.88;;;6.85;;
24813;SDS011;12904;50.088;11.414;2022-10-31T07:07:59;29.52;;;7.00;;
24813;SDS011;12904;50.088;11.414;2022-10-31T07:10:27;18.73;;;5.82;;
24813;SDS011;12904;50.088;11.414;2022-10-31T07:12:59;47.50;;;6.32;;
24813;SDS011;12904;50.088;11.414;2022-10-31T07:15:26;29.08;;;6.45;;
24813;SDS011;12904;50.088;11.414;2022-10-31T07:17:53;30.20;;;6.55;;
24813;SDS011;12904;50.088;11.414;2022-10-31T07:20:18;29.02;;;6.15;;
24813;SDS011;12904;50.088;11.414;2022-10-31T07:22:45;72.20;;;6.72;;
24813;SDS011;12904;50.088;11.414;2022-10-31T07:25:11;73.57;;;6.65;;
24813;SDS011;12904;50.088;11.414;2022-10-31T07:27:37;36.03;;;5.45;;
24813;SDS011;12904;50.088;11.414;2022-10-31T07:30:08;25.88;;;5.10;;
24813;SDS011;12904;50.088;11.414;2022-10-31T07:32:42;115.13;;;6.30;;
24813;SDS011;12904;50.088;11.414;2022-10-31T07:35:13;50.83;;;5.55;;
24813;SDS011;12904;50.088;11.414;2022-10-31T07:37:44;27.55;;;4.97;;
24813;SDS011;12904;50.088;11.414;2022-10-31T07:40:10;14.80;;;5.03;;
24813;SDS011;12904;50.088;11.414;2022-10-31T07:42:36;24.63;;;4.82;;
24813;SDS011;12904;50.088;11.414;2022-10-31T07:45:07;30.17;;;4.30;;
24813;SDS011;12904;50.088;11.414;2022-10-31T07:47:41;16.38;;;4.63;;
24813;SDS011;12904;50.088;11.414;2022-10-31T07:50:08;37.80;;;4.75;;
24813;SDS011;12904;50.088;11.414;2022-10-31T07:52:35;8.50;;;4.63;;
24813;SDS011;12904;50.088;11.414;2022-10-31T07:55:01;5.40;;;4.40;;
24813;SDS011;12904;50.088;11.414;2022-10-31T07:57:27;18.60;;;4.53;;
24813;SDS011;12904;50.088;11.414;2022-10-31T07:59:53;8.55;;;4.47;;
24813;SDS011;12904;50.088;11.414;2022-10-31T08:02:19;4.85;;;4.40;;
24813;SDS011;12904;50.088;11.414;2022-10-31T08:04:44;4.57;;;4.07;;
24813;SDS011;12904;50.088;11.414;2022-10-31T08:07:10;5.25;;;4.35;;
24813;SDS011;12904;50.088;11.414;2022-10-31T08:09:35;5.10;;;4.70;;
24813;SDS011;12904;50.088;11.414;2022-10-31T08:12:01;5.68;;;4.82;;
24813;SDS011;12904;50.088;11.414;2022-10-31T08:14:27;4.60;;;4.20;;
24813;SDS011;12904;50.088;11.414;2022-10-31T08:16:53;5.30;;;3.70;;
24813;SDS011;12904;50.088;11.414;2022-10-31T08:19:19;5.15;;;4.75;;
24813;SDS011;12904;50.088;11.414;2022-10-31T08:21:45;12.43;;;5.03;;
24813;SDS011;12904;50.088;11.414;2022-10-31T08:24:10;16.80;;;4.40;;
24813;SDS011;12904;50.088;11.414;2022-10-31T08:26:36;4.68;;;4.22;;
24813;SDS011;12904;50.088;11.414;2022-10-31T08:29:02;18.73;;;4.75;;
24813;SDS011;12904;50.088;11.414;2022-10-31T08:31:28;4.53;;;3.90;;
24813;SDS011;12904;50.088;11.414;2022-10-31T08:33:54;4.80;;;4.43;;
24813;SDS011;12904;50.088;11.414;2022-10-31T08:36:20;4.43;;;4.13;;
24813;SDS011;12904;50.088;11.414;2022-10-31T08:38:46;254.93;;;12.80;;
24813;SDS011;12904;50.088;11.414;2022-10-31T08:41:12;4.40;;;4.10;;
24813;SDS011;12904;50.088;11.414;2022-10-31T08:43:38;4.30;;;4.00;;
24813;SDS011;12904;50.088;11.414;2022-10-31T08:46:04;4.35;;;4.05;;
24813;SDS011;12904;50.088;11.414;2022-10-31T08:48:30;4.40;;;4.00;;
24813;SDS011;12904;50.088;11.414;2022-10-31T08:50:57;4.28;;;3.90;;
24813;SDS011;12904;50.088;11.414;2022-10-31T08:53:23;6.95;;;4.13;;
24813;SDS011;12904;50.088;11.414;2022-10-31T08:55:49;4.63;;;4.22;;
24813;SDS011;12904;50.088;11.414;2022-10-31T08:58:16;4.15;;;3.85;;
24813;SDS011;12904;50.088;11.414;2022-10-31T09:00:43;5.43;;;3.60;;
24813;SDS011;12904;50.088;11.414;2022-10-31T09:03:14;5.07;;;3.28;;
24813;SDS011;12904;50.088;11.414;2022-10-31T09:05:41;3.42;;;3.13;;
24813;SDS011;12904;50.088;11.414;2022-10-31T09:08:07;3.80;;;3.40;;
24813;SDS011;12904;50.088;11.414;2022-10-31T09:10:34;4.03;;;3.03;;
24813;SDS011;12904;50.088;11.414;2022-10-31T09:13:05;5.30;;;3.47;;
24813;SDS011;12904;50.088;11.414;2022-10-31T09:15:36;3.58;;;3.25;;
24813;SDS011;12904;50.088;11.414;2022-10-31T09:18:03;3.50;;;2.92;;
24813;SDS011;12904;50.088;11.414;2022-10-31T09:20:30;3.38;;;3.00;;
24813;SDS011;12904;50.088;11.414;2022-10-31T09:22:57;3.95;;;3.35;;
24813;SDS011;12904;50.088;11.414;2022-10-31T09:25:24;3.78;;;2.95;;
24813;SDS011;12904;50.088;11.414;2022-10-31T09:27:50;3.33;;;2.80;;
24813;SDS011;12904;50.088;11.414;2022-10-31T09:30:16;3.17;;;2.75;;
24813;SDS011;12904;50.088;11.414;2022-10-31T09:32:41;3.53;;;3.00;;
24813;SDS011;12904;50.088;11.414;2022-10-31T09:35:07;3.33;;;3.03;;
24813;SDS011;12904;50.088;11.414;2022-10-31T09:37:33;3.60;;;3.28;;
24813;SDS011;12904;50.088;11.414;2022-10-31T09:39:58;3.63;;;3.33;;
24813;SDS011;12904;50.088;11.414;2022-10-31T09:50:02;4.53;;;3.55;;
24813;SDS011;12904;50.088;11.414;2022-10-31T09:52:40;5.28;;;2.72;;
24813;SDS011;12904;50.088;11.414;2022-10-31T09:55:16;3.97;;;3.42;;
24813;SDS011;12904;50.088;11.414;2022-10-31T09:57:45;3.50;;;3.20;;
24813;SDS011;12904;50.088;11.414;2022-10-31T10:00:19;4.43;;;4.03;;
24813;SDS011;12904;50.088;11.414;2022-10-31T10:03:10;4.45;;;2.85;;
24813;SDS011;12904;50.088;11.414;2022-10-31T10:05:38;4.10;;;3.67;;
24813;SDS011;12904;50.088;11.414;2022-10-31T10:08:21;4.55;;;3.63;;
24813;SDS011;12904;50.088;11.414;2022-10-31T10:10:55;6.53;;;4.15;;
24813;SDS011;12904;50.088;11.414;2022-10-31T10:35:46;9.82;;;4.95;;
24813;SDS011;12904;50.088;11.414;2022-10-31T10:41:14;6.43;;;4.40;;
24813;SDS011;12904;50.088;11.414;2022-10-31T10:43:51;5.80;;;5.07;;
24813;SDS011;12904;50.088;11.414;2022-10-31T10:59:33;10.10;;;4.97;;
24813;SDS011;12904;50.088;11.414;2022-10-31T11:02:00;9.02;;;4.70;;
24813;SDS011;12904;50.088;11.414;2022-10-31T11:04:29;10.43;;;5.10;;
24813;SDS011;12904;50.088;11.414;2022-10-31T11:07:06;9.13;;;5.00;;
24813;SDS011;12904;50.088;11.414;2022-10-31T11:09:33;8.45;;;5.18;;
24813;SDS011;12904;50.088;11.414;2022-10-31T11:12:05;5.95;;;4.47;;
24813;SDS011;12904;50.088;11.414;2022-10-31T11:14:45;7.43;;;5.18;;
24813;SDS011;12904;50.088;11.414;2022-10-31T11:17:19;6.60;;;4.80;;
24813;SDS011;12904;50.088;11.414;2022-10-31T11:20:28;6.35;;;4.53;;
24813;SDS011;12904;50.088;11.414;2022-10-31T11:22:45;10.45;;;5.63;;
24813;SDS011;12904;50.088;11.414;2022-10-31T11:25:25;7.95;;;5.18;;
24813;SDS011;12904;50.088;11.414;2022-10-31T11:28:05;9.73;;;5.25;;
24813;SDS011;12904;50.088;11.414;2022-10-31T11:30:43;7.43;;;5.20;;
24813;SDS011;12904;50.088;11.414;2022-10-31T11:35:47;7.70;;;5.47;;
24813;SDS011;12904;50.088;11.414;2022-10-31T11:38:17;11.02;;;5.10;;
24813;SDS011;12904;50.088;11.414;2022-10-31T11:40:54;8.90;;;5.25;;
24813;SDS011;12904;50.088;11.414;2022-10-31T11:43:21;9.10;;;5.47;;
24813;SDS011;12904;50.088;11.414;2022-10-31T11:45:47;7.80;;;4.55;;
24813;SDS011;12904;50.088;11.414;2022-10-31T11:48:15;9.45;;;5.05;;
24813;SDS011;12904;50.088;11.414;2022-10-31T11:53:19;7.50;;;4.70;;
24813;SDS011;12904;50.088;11.414;2022-10-31T11:55:59;8.63;;;4.70;;
24813;SDS011;12904;50.088;11.414;2022-10-31T11:58:29;8.53;;;4.43;;
24813;SDS011;12904;50.088;11.414;2022-10-31T12:00:55;7.57;;;4.65;;
24813;SDS011;12904;50.088;11.414;2022-10-31T12:05:56;8.35;;;5.00;;
24813;SDS011;12904;50.088;11.414;2022-10-31T12:08:33;10.57;;;4.78;;
24813;SDS011;12904;50.088;11.414;2022-10-31T12:11:11;7.95;;;4.97;;
24813;SDS011;12904;50.088;11.414;2022-10-31T12:16:19;8.50;;;5.60;;
24813;SDS011;12904;50.088;11.414;2022-10-31T12:19:04;10.32;;;4.95;;
24813;SDS011;12904;50.088;11.414;2022-10-31T12:24:22;9.95;;;5.82;;
24813;SDS011;12904;50.088;11.414;2022-10-31T12:57:27;11.02;;;5.15;;
24813;SDS011;12904;50.088;11.414;2022-10-31T13:00:14;6.82;;;5.32;;
24813;SDS011;12904;50.088;11.414;2022-10-31T13:08:12;9.48;;;5.00;;
24813;SDS011;12904;50.088;11.414;2022-10-31T13:10:46;8.57;;;4.82;;
24813;SDS011;12904;50.088;11.414;2022-10-31T13:16:01;9.75;;;4.13;;
24813;SDS011;12904;50.088;11.414;2022-10-31T13:18:32;8.52;;;3.72;;
24813;SDS011;12904;50.088;11.414;2022-10-31T13:21:03;8.15;;;4.70;;
24813;SDS011;12904;50.088;11.414;2022-10-31T13:23:41;8.70;;;4.63;;
24813;SDS011;12904;50.088;11.414;2022-10-31T13:26:10;9.93;;;5.22;;
24813;SDS011;12904;50.088;11.414;2022-10-31T13:28:46;9.68;;;4.85;;
24813;SDS011;12904;50.088;11.414;2022-10-31T13:31:15;13.32;;;5.00;;
24813;SDS011;12904;50.088;11.414;2022-10-31T13:33:42;11.20;;;5.10;;
24813;SDS011;12904;50.088;11.414;2022-10-31T13:36:26;7.45;;;4.75;;
24813;SDS011;12904;50.088;11.414;2022-10-31T13:39:02;11.63;;;4.78;;
24813;SDS011;12904;50.088;11.414;2022-10-31T13:44:12;9.75;;;5.13;;
24813;SDS011;12904;50.088;11.414;2022-10-31T13:46:42;13.32;;;4.95;;
24813;SDS011;12904;50.088;11.414;2022-10-31T13:49:26;7.72;;;5.03;;
24813;SDS011;12904;50.088;11.414;2022-10-31T13:52:05;8.25;;;4.55;;
24813;SDS011;12904;50.088;11.414;2022-10-31T13:54:32;8.15;;;4.97;;
24813;SDS011;12904;50.088;11.414;2022-10-31T13:56:59;7.10;;;4.70;;
24813;SDS011;12904;50.088;11.414;2022-10-31T13:59:28;12.63;;;4.57;;
24813;SDS011;12904;50.088;11.414;2022-10-31T14:01:58;7.53;;;5.00;;
24813;SDS011;12904;50.088;11.414;2022-10-31T14:07:14;6.80;;;4.75;;
24813;SDS011;12904;50.088;11.414;2022-10-31T14:09:51;9.13;;;5.05;;
24813;SDS011;12904;50.088;11.414;2022-10-31T14:15:04;9.25;;;4.82;;
24813;SDS011;12904;50.088;11.414;2022-10-31T14:17:48;6.97;;;4.47;;
24813;SDS011;12904;50.088;11.414;2022-10-31T14:20:33;9.05;;;4.78;;
24813;SDS011;12904;50.088;11.414;2022-10-31T14:26:08;8.73;;;7.80;;
24813;SDS011;12904;50.088;11.414;2022-10-31T14:28:57;10.23;;;8.75;;
24813;SDS011;12904;50.088;11.414;2022-10-31T14:34:33;15.57;;;6.28;;
24813;SDS011;12904;50.088;11.414;2022-10-31T14:53:34;10.95;;;5.03;;
24813;SDS011;12904;50.088;11.414;2022-10-31T14:56:01;8.52;;;4.53;;
24813;SDS011;12904;50.088;11.414;2022-10-31T14:58:40;9.38;;;5.20;;
24813;SDS011;12904;50.088;11.414;2022-10-31T15:01:21;6.72;;;5.88;;
24813;SDS011;12904;50.088;11.414;2022-10-31T15:03:47;8.68;;;6.10;;
24813;SDS011;12904;50.088;11.414;2022-10-31T15:06:14;7.15;;;5.80;;
24813;SDS011;12904;50.088;11.414;2022-10-31T15:08:51;10.93;;;6.38;;
24813;SDS011;12904;50.088;11.414;2022-10-31T15:11:25;8.82;;;6.15;;
24813;SDS011;12904;50.088;11.414;2022-10-31T15:13:53;13.30;;;5.97;;
24813;SDS011;12904;50.088;11.414;2022-10-31T15:16:21;9.30;;;7.22;;
24813;SDS011;12904;50.088;11.414;2022-10-31T15:19:02;9.02;;;6.75;;
24813;SDS011;12904;50.088;11.414;2022-10-31T15:21:33;11.95;;;7.68;;
24813;SDS011;12904;50.088;11.414;2022-10-31T15:24:01;13.48;;;6.90;;
24813;SDS011;12904;50.088;11.414;2022-10-31T15:26:32;9.88;;;7.35;;
24813;SDS011;12904;50.088;11.414;2022-10-31T15:29:04;14.15;;;7.63;;
24813;SDS011;12904;50.088;11.414;2022-10-31T15:31:35;9.23;;;7.05;;
24813;SDS011;12904;50.088;11.414;2022-10-31T15:34:25;9.45;;;7.75;;
24813;SDS011;12904;50.088;11.414;2022-10-31T15:36:49;15.82;;;8.45;;
24813;SDS011;12904;50.088;11.414;2022-10-31T15:39:16;12.38;;;8.30;;
24813;SDS011;12904;50.088;11.414;2022-10-31T15:41:52;12.07;;;7.65;;
24813;SDS011;12904;50.088;11.414;2022-10-31T15:44:33;12.70;;;8.82;;
24813;SDS011;12904;50.088;11.414;2022-10-31T15:47:02;14.20;;;9.00;;
24813;SDS011;12904;50.088;11.414;2022-10-31T15:49:38;9.90;;;8.40;;
24813;SDS011;12904;50.088;11.414;2022-10-31T15:52:14;8.15;;;7.45;;
24813;SDS011;12904;50.088;11.414;2022-10-31T15:55:22;13.63;;;8.85;;
24813;SDS011;12904;50.088;11.414;2022-10-31T15:58:03;12.07;;;8.98;;
24813;SDS011;12904;50.088;11.414;2022-10-31T16:00:36;10.23;;;8.32;;
24813;SDS011;12904;50.088;11.414;2022-10-31T16:05:47;14.15;;;8.57;;
24813;SDS011;12904;50.088;11.414;2022-10-31T16:11:13;15.80;;;10.20;;
24813;SDS011;12904;50.088;11.414;2022-10-31T16:13:57;14.60;;;9.98;;
24813;SDS011;12904;50.088;11.414;2022-10-31T16:16:29;18.50;;;11.48;;
24813;SDS011;12904;50.088;11.414;2022-10-31T16:18:56;15.18;;;11.43;;
24813;SDS011;12904;50.088;11.414;2022-10-31T16:21:30;12.90;;;10.48;;
24813;SDS011;12904;50.088;11.414;2022-10-31T16:24:25;13.50;;;10.73;;
24813;SDS011;12904;50.088;11.414;2022-10-31T16:27:05;12.02;;;10.50;;
24813;SDS011;12904;50.088;11.414;2022-10-31T16:29:44;12.57;;;10.07;;
24813;SDS011;12904;50.088;11.414;2022-10-31T16:32:28;13.30;;;9.98;;
24813;SDS011;12904;50.088;11.414;2022-10-31T16:37:33;15.38;;;9.45;;
24813;SDS011;12904;50.088;11.414;2022-10-31T16:39:59;14.45;;;8.52;;
24813;SDS011;12904;50.088;11.414;2022-10-31T16:42:24;17.42;;;8.32;;
24813;SDS011;12904;50.088;11.414;2022-10-31T16:45:04;11.07;;;7.38;;
24813;SDS011;12904;50.088;11.414;2022-10-31T16:47:31;8.43;;;7.13;;
24813;SDS011;12904;50.088;11.414;2022-10-31T16:49:56;15.73;;;7.05;;
24813;SDS011;12904;50.088;11.414;2022-10-31T16:52:25;12.90;;;6.68;;
24813;SDS011;12904;50.088;11.414;2022-10-31T16:54:51;11.48;;;7.28;;
24813;SDS011;12904;50.088;11.414;2022-10-31T16:57:17;13.77;;;7.40;;
24813;SDS011;12904;50.088;11.414;2022-10-31T17:02:16;11.00;;;8.18;;
24813;SDS011;12904;50.088;11.414;2022-10-31T17:04:42;13.98;;;9.82;;
24813;SDS011;12904;50.088;11.414;2022-10-31T17:07:08;15.40;;;8.45;;
24813;SDS011;12904;50.088;11.414;2022-10-31T17:09:33;14.07;;;9.68;;
24813;SDS011;12904;50.088;11.414;2022-10-31T17:11:59;12.57;;;10.30;;
24813;SDS011;12904;50.088;11.414;2022-10-31T17:14:24;13.75;;;10.50;;
24813;SDS011;12904;50.088;11.414;2022-10-31T17:16:50;16.95;;;12.52;;
24813;SDS011;12904;50.088;11.414;2022-10-31T17:19:16;12.25;;;9.25;;
24813;SDS011;12904;50.088;11.414;2022-10-31T17:21:42;12.60;;;11.27;;
24813;SDS011;12904;50.088;11.414;2022-10-31T17:24:09;12.27;;;10.95;;
24813;SDS011;12904;50.088;11.414;2022-10-31T17:26:37;17.98;;;11.73;;